»·PEaware :: N510CJ KEUG-KFOT

N510CJ :: KEUG-KFOT

FLIGHT INFORMATION

Flight Status: Arrived
Operator: Privately registered:
United States
More flights under this callsign
Pilot: John G. (2195)
Aircraft: CESSNA 510 CITATION MUSTANG
(C510)
More flights by this aircraft type
Origin: KEUG Mahlon Sweet
United States
Destination: KFOT Rohnerville
United States
More flights between these airports :: More routes between these airports
Route: +EUGEN9 EUG V121 OTH V27 FOT
File this flight plan on PilotEdge
Remarks: gps rwy 11 (FOYTE)IAF
Altitude:
(Current/Filed)
24,000ft
Speed:
(Current/Filed)
320kts
Departed: 27-Dec-17 11:24 AM
Arrived: 27-Dec-17 12:20 PM
Distance/Time
Traveled:
218nm/0:56
Distance/Time
To Go:
Arrived

Flight Plot

Page will automatically refresh every two minutes.

Flight plan parsing failed; only flown route is shown


Map Options




Map Legend


Flown Route
Filed Route
Departure Airport
Arrival Airport
Navaid (VOR, NDB)
Fix

Horizontal Profiles

Position Reports

Time Latitude Longitude Heading Altitude Ground
Speed
27-Dec-17 11:11 44.121883 -123.212911 106 371ft 0kts
27-Dec-17 11:12 44.121883 -123.212911 106 371ft 0kts
27-Dec-17 11:13 44.121883 -123.212910 106 371ft 0kts
27-Dec-17 11:14 44.121883 -123.212910 106 371ft 0kts
27-Dec-17 11:15 44.121883 -123.212909 106 371ft 0kts
27-Dec-17 11:16 44.121883 -123.212909 106 371ft 0kts
27-Dec-17 11:17 44.121883 -123.212908 106 371ft 0kts
27-Dec-17 11:18 44.121883 -123.212908 106 371ft 0kts
27-Dec-17 11:19 44.121883 -123.212907 106 371ft 0kts
27-Dec-17 11:20 44.121882 -123.212907 106 371ft 0kts
27-Dec-17 11:21 44.121882 -123.212906 106 371ft 0kts
27-Dec-17 11:22 44.121882 -123.212906 106 371ft 0kts
27-Dec-17 11:23 44.121882 -123.212905 106 371ft 0kts
27-Dec-17 11:24 44.121882 -123.212905 106 371ft 0kts
27-Dec-17 11:25 44.121882 -123.212904 106 371ft 0kts
27-Dec-17 11:26 44.121580 -123.213308 232 371ft 21kts
27-Dec-17 11:27 44.124296 -123.217065 345 371ft 11kts
27-Dec-17 11:28 44.129238 -123.217247 0 371ft 28kts
27-Dec-17 11:29 44.135199 -123.217479 317 371ft 0kts
27-Dec-17 11:30 44.130785 -123.219068 179 371ft 80kts
27-Dec-17 11:31 44.092593 -123.219066 179 2863ft 156kts
27-Dec-17 11:32 44.048403 -123.217206 180 6327ft 183kts
27-Dec-17 11:33 43.994937 -123.209817 178 9018ft 236kts
27-Dec-17 11:34 43.934814 -123.248056 225 9824ft 213kts
27-Dec-17 11:35 43.901356 -123.302525 238 11465ft 189kts
27-Dec-17 11:36 43.871185 -123.357001 242 14473ft 175kts
27-Dec-17 11:37 43.841095 -123.411514 244 16945ft 181kts
27-Dec-17 11:38 43.809959 -123.467775 245 19175ft 186kts
27-Dec-17 11:39 43.777921 -123.525534 245 21131ft 192kts
27-Dec-17 11:40 43.744783 -123.585071 244 22895ft 198kts
27-Dec-17 11:41 43.710416 -123.646773 244 24325ft 212kts
27-Dec-17 11:42 43.669841 -123.720272 242 24413ft 267kts
27-Dec-17 11:43 43.621428 -123.806537 240 24412ft 298kts
27-Dec-17 11:44 43.569328 -123.898490 240 24413ft 290kts
27-Dec-17 11:45 43.520088 -123.985039 241 24419ft 285kts
27-Dec-17 11:46 43.471053 -124.071886 240 24222ft 288kts
27-Dec-17 11:47 43.422377 -124.157581 241 22766ft 282kts
27-Dec-17 11:48 43.341952 -124.187421 185 21277ft 333kts
27-Dec-17 11:49 43.249514 -124.177548 187 19775ft 328kts
27-Dec-17 11:50 43.159623 -124.179452 191 18549ft 320kts
27-Dec-17 11:51 43.070286 -124.184166 191 17547ft 319kts
27-Dec-17 11:52 42.982239 -124.188231 190 16548ft 315kts
27-Dec-17 11:53 42.895642 -124.192144 189 15549ft 309kts
27-Dec-17 11:54 42.810251 -124.196007 189 14546ft 304kts
27-Dec-17 11:55 42.726494 -124.199769 188 13547ft 298kts
27-Dec-17 11:56 42.643765 -124.203455 188 12544ft 294kts
27-Dec-17 11:57 42.562329 -124.207070 188 11980ft 294kts
27-Dec-17 11:58 42.481373 -124.211636 188 11684ft 289kts
27-Dec-17 11:59 42.400185 -124.216636 188 11694ft 292kts
27-Dec-17 12:00 42.319040 -124.221496 188 11699ft 294kts
27-Dec-17 12:01 42.237928 -124.226697 188 11703ft 295kts
27-Dec-17 12:02 42.156422 -124.231142 188 11705ft 294kts
27-Dec-17 12:03 42.074818 -124.235736 188 11704ft 295kts
27-Dec-17 12:04 41.992803 -124.240328 188 11812ft 290kts
27-Dec-17 12:05 41.912815 -124.244825 188 12016ft 289kts
27-Dec-17 12:06 41.831781 -124.249547 188 12014ft 293kts
27-Dec-17 12:07 41.749784 -124.254210 188 12014ft 295kts
27-Dec-17 12:08 41.667723 -124.258239 188 12014ft 295kts
27-Dec-17 12:09 41.585339 -124.262583 188 12013ft 295kts
27-Dec-17 12:10 41.503137 -124.267155 188 12010ft 296kts
27-Dec-17 12:11 41.420848 -124.271796 188 12006ft 296kts
27-Dec-17 12:12 41.338214 -124.276465 188 11987ft 297kts
27-Dec-17 12:13 41.255832 -124.281104 186 11005ft 291kts
27-Dec-17 12:14 41.175736 -124.285537 185 10002ft 284kts
27-Dec-17 12:15 41.100578 -124.289732 184 9042ft 279kts
27-Dec-17 12:16 41.024621 -124.294019 184 8042ft 269kts
27-Dec-17 12:17 40.950053 -124.298233 184 7040ft 266kts
27-Dec-17 12:18 40.878967 -124.302199 183 6079ft 266kts
27-Dec-17 12:19 40.805277 -124.306250 183 5145ft 262kts
27-Dec-17 12:20 40.751482 -124.309266 183 4992ft 251kts
27-Dec-17 12:21 40.671180 -124.313758 183 4992ft 246kts
27-Dec-17 12:22 40.620588 -124.271909 110 3688ft 219kts
27-Dec-17 12:23 40.600612 -124.215139 122 2439ft 190kts
27-Dec-17 12:24 40.573209 -124.165594 128 1073ft 118kts
27-Dec-17 12:25 40.558645 -124.140801 125 450ft 99kts
27-Dec-17 12:26 40.550864 -124.127339 118 357ft 9kts
27-Dec-17 12:27 40.551985 -124.128093 307 357ft 15kts
27-Dec-17 12:28 40.554226 -124.131871 334 357ft 4kts
27-Dec-17 12:29 40.554730 -124.131871 98 357ft 0kts
27-Dec-17 12:30 40.554730 -124.131871 98 357ft 0kts

Navigation Log

Ident Type
Flight plan parsing failed, navigation log unavailable